createdAt,value
2023-12-04T00:02:06.071Z,91.50
2023-12-04T00:04:32.935Z,91.00
2023-12-04T00:06:59.920Z,91.00
2023-12-04T00:09:26.673Z,91.20
2023-12-04T00:11:53.534Z,91.00
2023-12-04T00:14:20.460Z,91.00
2023-12-04T00:16:47.216Z,90.80
2023-12-04T00:19:15.366Z,90.80
2023-12-04T00:21:42.202Z,90.40
2023-12-04T00:24:08.975Z,90.40
2023-12-04T00:26:35.740Z,90.60
2023-12-04T00:29:02.474Z,90.80
2023-12-04T00:31:29.564Z,90.70
2023-12-04T00:33:56.614Z,90.90
2023-12-04T00:36:24.754Z,91.00
2023-12-04T00:38:52.209Z,90.90
2023-12-04T00:41:18.930Z,90.30
2023-12-04T00:43:45.674Z,90.10
2023-12-04T00:46:12.444Z,90.50
2023-12-04T00:48:39.301Z,90.50
2023-12-04T00:51:07.042Z,90.60
2023-12-04T00:53:35.132Z,90.40
2023-12-04T00:56:01.895Z,90.40
2023-12-04T00:58:28.626Z,90.40
2023-12-04T01:00:55.443Z,90.40
2023-12-04T01:03:22.221Z,90.40
2023-12-04T01:05:48.949Z,90.40
2023-12-04T01:08:15.703Z,90.40
2023-12-04T01:10:43.802Z,90.30
2023-12-04T01:13:10.588Z,90.60
2023-12-04T01:15:37.338Z,90.50
2023-12-04T01:18:04.370Z,90.60
2023-12-04T01:20:31.355Z,90.60
2023-12-04T01:22:58.119Z,90.40
2023-12-04T01:25:24.913Z,90.40
2023-12-04T01:27:53.105Z,91.10
2023-12-04T01:30:19.891Z,91.10
2023-12-04T01:32:46.751Z,91.20
2023-12-04T01:35:13.715Z,91.30
2023-12-04T01:37:40.461Z,91.30
2023-12-04T01:40:08.707Z,91.30
2023-12-04T01:42:35.514Z,91.40
2023-12-04T01:45:04.416Z,91.30
2023-12-04T01:47:31.242Z,91.40
2023-12-04T01:49:58.121Z,91.10
2023-12-04T01:52:24.884Z,91.10
2023-12-04T01:54:52.252Z,90.90
2023-12-04T01:57:19.730Z,91.00
2023-12-04T01:59:46.940Z,90.80
2023-12-04T02:02:15.279Z,90.70
2023-12-04T02:04:42.633Z,90.60
2023-12-04T02:07:09.532Z,90.70
2023-12-04T02:09:36.625Z,90.40
2023-12-04T02:12:03.948Z,90.50
2023-12-04T02:14:30.783Z,90.50
2023-12-04T02:16:58.992Z,90.40
2023-12-04T02:19:28.279Z,90.60
2023-12-04T02:21:55.035Z,90.30
2023-12-04T02:24:23.306Z,90.30
2023-12-04T02:26:53.826Z,90.00
2023-12-04T02:29:24.673Z,90.00
2023-12-04T02:31:54.050Z,90.40
2023-12-04T02:34:21.933Z,90.10
2023-12-04T02:36:49.842Z,90.20
2023-12-04T02:39:16.746Z,90.20
2023-12-04T02:41:44.846Z,90.20
2023-12-04T02:44:11.590Z,89.80
2023-12-04T02:46:39.044Z,89.70
2023-12-04T02:49:05.803Z,89.60
2023-12-04T02:51:32.563Z,89.90
2023-12-04T02:53:59.349Z,89.40
2023-12-04T02:56:26.105Z,89.50
2023-12-04T02:58:54.156Z,89.40
2023-12-04T03:01:20.872Z,89.30
2023-12-04T03:03:47.738Z,89.90
2023-12-04T03:06:14.535Z,90.10
2023-12-04T03:08:41.318Z,89.90
2023-12-04T03:11:08.219Z,90.10
2023-12-04T03:13:35.164Z,90.20
2023-12-04T03:16:03.541Z,90.10
2023-12-04T03:18:30.406Z,90.20
2023-12-04T03:20:57.179Z,90.00
2023-12-04T03:23:23.916Z,90.00
2023-12-04T03:25:50.683Z,89.90
2023-12-04T03:28:17.481Z,89.10
2023-12-04T03:30:44.231Z,88.80
2023-12-04T03:33:12.518Z,88.60
2023-12-04T03:35:39.292Z,89.60
2023-12-04T03:38:06.079Z,89.60
2023-12-04T03:40:32.848Z,88.60
2023-12-04T03:42:59.790Z,88.20
2023-12-04T03:45:26.713Z,87.80
2023-12-04T03:47:53.566Z,88.10
2023-12-04T03:50:21.704Z,88.20
2023-12-04T03:52:48.464Z,88.90
2023-12-04T03:55:15.441Z,88.90
2023-12-04T03:57:42.539Z,88.70
2023-12-04T04:00:11.706Z,88.00
2023-12-04T04:02:40.226Z,88.40
2023-12-04T04:05:07.436Z,87.70
2023-12-04T04:07:35.730Z,87.90
2023-12-04T04:10:03.076Z,87.20
2023-12-04T04:12:29.882Z,87.30
2023-12-04T04:14:56.738Z,87.80
2023-12-04T04:17:23.712Z,88.40
2023-12-04T04:19:50.493Z,87.30
2023-12-04T04:22:17.279Z,86.70
2023-12-04T04:24:45.420Z,86.60
2023-12-04T04:27:12.206Z,86.90
2023-12-04T04:29:38.954Z,87.60
2023-12-04T04:32:06.731Z,87.60
2023-12-04T04:34:33.653Z,88.60
2023-12-04T04:37:01.128Z,89.30
2023-12-04T04:39:27.904Z,89.60
2023-12-04T04:41:56.166Z,90.20
2023-12-04T04:44:24.805Z,90.30
2023-12-04T04:46:51.643Z,90.40
2023-12-04T04:49:18.433Z,90.90
2023-12-04T04:51:45.218Z,90.90
2023-12-04T04:54:11.995Z,90.70
2023-12-04T04:56:38.720Z,90.50
2023-12-04T04:59:06.839Z,89.80
2023-12-04T05:01:33.687Z,90.00
2023-12-04T05:04:00.540Z,89.80
2023-12-04T05:06:27.510Z,89.60
2023-12-04T05:08:54.289Z,90.00
2023-12-04T05:11:21.218Z,90.10
2023-12-04T05:13:48.117Z,90.80
2023-12-04T05:16:16.335Z,89.40
2023-12-04T05:18:43.468Z,88.80
2023-12-04T05:21:10.603Z,88.40
2023-12-04T05:23:37.780Z,88.70
2023-12-04T05:26:05.457Z,89.20
2023-12-04T05:28:32.218Z,89.60
2023-12-04T05:30:59.247Z,87.80
2023-12-04T05:33:27.451Z,88.40
2023-12-04T05:35:54.252Z,87.60
2023-12-04T05:38:21.086Z,87.60
2023-12-04T05:40:47.889Z,89.30
2023-12-04T05:43:14.673Z,88.50
2023-12-04T05:45:41.688Z,88.20
2023-12-04T05:48:08.554Z,87.20
2023-12-04T05:50:36.716Z,86.90
2023-12-04T05:53:03.522Z,88.00
2023-12-04T05:55:30.284Z,88.40
2023-12-04T05:57:57.084Z,88.70
2023-12-04T06:00:26.781Z,90.10
2023-12-04T06:02:55.321Z,89.60
2023-12-04T06:05:22.352Z,86.90
2023-12-04T06:07:50.523Z,87.60
2023-12-04T06:10:17.482Z,87.90
2023-12-04T06:12:44.245Z,88.20
2023-12-04T06:15:11.276Z,87.80
2023-12-04T06:17:38.043Z,88.40
2023-12-04T06:20:05.832Z,89.10
2023-12-04T06:22:33.171Z,88.30
2023-12-04T06:25:01.942Z,87.80
2023-12-04T06:27:29.161Z,88.00
2023-12-04T06:29:56.400Z,88.20
2023-12-04T06:32:23.776Z,88.00
2023-12-04T06:34:51.271Z,88.80
2023-12-04T06:37:18.510Z,90.10
2023-12-04T06:39:49.137Z,88.80
2023-12-04T06:42:18.207Z,87.40
2023-12-04T06:44:45.598Z,87.50
2023-12-04T06:47:13.685Z,87.80
2023-12-04T06:49:40.480Z,87.40
2023-12-04T06:52:07.323Z,87.60
2023-12-04T06:54:34.152Z,88.60
2023-12-04T06:57:00.980Z,89.10
2023-12-04T06:59:29.052Z,89.30
2023-12-04T07:01:55.797Z,89.90
2023-12-04T07:04:22.776Z,89.00
2023-12-04T07:06:50.437Z,87.00
2023-12-04T07:09:17.321Z,87.10
2023-12-04T07:11:44.290Z,86.00
2023-12-04T07:14:11.081Z,85.50
2023-12-04T07:16:43.079Z,85.50
2023-12-04T07:19:10.130Z,86.40
2023-12-04T07:21:37.109Z,87.80
2023-12-04T07:24:04.337Z,88.00
2023-12-04T07:26:31.848Z,88.30
2023-12-04T07:28:58.642Z,89.10
2023-12-04T07:31:25.421Z,90.00
2023-12-04T07:33:53.692Z,90.20
2023-12-04T07:36:20.613Z,90.40
2023-12-04T07:38:47.656Z,89.60
2023-12-04T07:41:14.885Z,87.60
2023-12-04T07:43:41.699Z,87.70
2023-12-04T07:46:10.720Z,87.10
2023-12-04T07:48:37.615Z,87.10
2023-12-04T07:51:06.455Z,87.20
2023-12-04T07:53:33.260Z,86.30
2023-12-04T07:56:02.149Z,86.30
2023-12-04T07:58:28.884Z,85.60
2023-12-04T08:00:55.746Z,86.10
2023-12-04T08:03:22.561Z,87.00
2023-12-04T08:05:49.362Z,87.30
2023-12-04T08:08:17.588Z,88.00
2023-12-04T08:10:44.418Z,87.70
2023-12-04T08:13:11.285Z,88.00
2023-12-04T08:15:38.087Z,87.60
2023-12-04T08:18:04.967Z,86.90
2023-12-04T08:20:36.961Z,87.00
2023-12-04T08:23:07.170Z,87.10
2023-12-04T08:25:35.392Z,86.60
2023-12-04T08:28:02.678Z,87.00
2023-12-04T08:30:29.429Z,86.80
2023-12-04T08:32:56.338Z,86.70
2023-12-04T08:35:23.199Z,87.20
2023-12-04T08:37:50.282Z,87.70
2023-12-04T08:40:17.685Z,86.80
2023-12-04T08:42:46.058Z,86.60
2023-12-04T08:45:12.989Z,87.60
2023-12-04T08:47:39.799Z,87.80
2023-12-04T08:50:07.714Z,88.10
2023-12-04T08:52:34.496Z,88.20
2023-12-04T08:55:01.891Z,88.20
2023-12-04T08:57:28.862Z,88.50
2023-12-04T08:59:56.994Z,88.50
2023-12-04T09:02:23.825Z,88.70
2023-12-04T09:04:50.781Z,87.40
2023-12-04T09:09:47.801Z,88.00
2023-12-04T09:12:15.060Z,88.00
2023-12-04T09:14:42.118Z,87.70
2023-12-04T09:17:11.247Z,87.70
2023-12-04T09:19:38.144Z,88.30
2023-12-04T09:22:12.626Z,89.50
2023-12-04T09:24:44.398Z,90.00
2023-12-04T09:27:11.393Z,88.70
2023-12-04T09:29:38.342Z,88.10
2023-12-04T09:32:05.604Z,88.30
2023-12-04T09:34:33.723Z,88.10
2023-12-04T09:37:08.337Z,87.80
2023-12-04T09:39:38.155Z,88.20
2023-12-04T09:42:05.370Z,88.40
2023-12-04T09:44:33.345Z,89.40
2023-12-04T09:47:02.443Z,89.80
2023-12-04T09:49:31.808Z,90.00
2023-12-04T09:52:02.705Z,90.20
2023-12-04T09:54:31.018Z,90.10
2023-12-04T09:56:58.595Z,90.00
2023-12-04T09:59:26.010Z,89.90
2023-12-04T10:01:53.259Z,90.10
2023-12-04T10:04:21.097Z,90.30
2023-12-04T10:06:50.472Z,90.30
2023-12-04T10:09:18.934Z,90.30
2023-12-04T10:11:46.313Z,90.30
2023-12-04T10:14:17.819Z,90.10
2023-12-04T10:16:45.108Z,90.30
2023-12-04T10:19:20.354Z,90.30
2023-12-04T10:21:48.931Z,90.40
2023-12-04T10:24:29.573Z,89.80
2023-12-04T10:26:56.456Z,90.00
2023-12-04T10:29:23.509Z,90.10
2023-12-04T10:31:51.192Z,90.00
2023-12-04T10:34:18.487Z,90.10
2023-12-04T10:36:46.669Z,90.10
2023-12-04T10:39:13.598Z,90.70
2023-12-04T10:41:41.886Z,90.90
2023-12-04T10:44:11.013Z,90.60
2023-12-04T10:46:39.626Z,90.70
2023-12-04T10:49:08.068Z,90.60
2023-12-04T10:51:35.850Z,91.00
2023-12-04T10:54:02.954Z,91.00
2023-12-04T10:56:35.421Z,91.20
2023-12-04T10:59:08.384Z,90.80
2023-12-04T11:01:35.516Z,90.70
2023-12-04T11:04:08.344Z,90.90
2023-12-04T11:06:40.195Z,90.90
2023-12-04T11:09:07.954Z,90.90
2023-12-04T11:11:38.129Z,90.90
2023-12-04T11:14:09.375Z,90.80
2023-12-04T11:16:42.848Z,91.00
2023-12-04T11:19:19.094Z,91.00
2023-12-04T11:21:46.965Z,91.40
2023-12-04T11:24:14.085Z,91.00
2023-12-04T11:26:42.231Z,91.00
2023-12-04T11:29:12.922Z,91.00
2023-12-04T11:31:39.782Z,91.10
2023-12-04T11:34:09.526Z,91.00
2023-12-04T11:36:36.934Z,91.00
2023-12-04T11:39:03.942Z,91.00
2023-12-04T11:41:31.654Z,91.00
2023-12-04T11:43:59.227Z,91.10
2023-12-04T11:46:29.250Z,91.00
2023-12-04T11:48:57.857Z,91.10
2023-12-04T11:51:46.577Z,90.90
2023-12-04T11:54:15.973Z,91.10
2023-12-04T11:56:56.883Z,91.20
2023-12-04T11:59:23.753Z,91.60
2023-12-04T12:01:55.767Z,91.10
2023-12-04T12:04:22.988Z,90.70
2023-12-04T12:06:50.593Z,90.60
2023-12-04T12:09:17.781Z,90.40
2023-12-04T12:11:45.254Z,90.30
2023-12-04T12:14:12.034Z,90.40
2023-12-04T12:16:38.761Z,90.60
2023-12-04T12:19:06.913Z,90.60
2023-12-04T12:21:33.905Z,90.70
2023-12-04T12:24:01.375Z,90.60
2023-12-04T12:26:29.673Z,90.70
2023-12-04T12:28:56.839Z,90.70
2023-12-04T12:31:23.604Z,90.80
2023-12-04T12:33:50.465Z,90.90
2023-12-04T12:36:19.077Z,91.20
2023-12-04T12:38:46.561Z,91.30
2023-12-04T12:41:13.579Z,91.10
2023-12-04T12:43:40.493Z,91.20
2023-12-04T12:46:07.816Z,91.20
2023-12-04T12:48:34.790Z,91.20
2023-12-04T12:51:03.962Z,91.40
2023-12-04T12:53:34.697Z,91.30
2023-12-04T12:56:02.386Z,91.40
2023-12-04T12:58:29.280Z,91.50
2023-12-04T13:00:56.954Z,91.30
2023-12-04T13:03:24.194Z,91.40
2023-12-04T13:05:51.220Z,91.40
2023-12-04T13:08:18.051Z,91.30
2023-12-04T13:10:46.421Z,91.20
2023-12-04T13:13:13.889Z,91.10
2023-12-04T13:15:40.907Z,91.00
2023-12-04T13:18:08.380Z,90.90
2023-12-04T13:20:35.211Z,90.80
2023-12-04T13:23:02.199Z,90.80
2023-12-04T13:25:30.754Z,90.60
2023-12-04T13:27:59.267Z,90.60
2023-12-04T13:30:26.134Z,90.40
2023-12-04T13:32:53.041Z,90.40
2023-12-04T13:35:20.087Z,90.40
2023-12-04T13:37:47.017Z,90.40
2023-12-04T13:40:14.050Z,90.40
2023-12-04T13:42:40.844Z,90.40
2023-12-04T13:45:10.052Z,90.40
2023-12-04T13:47:36.827Z,90.50
2023-12-04T13:50:04.046Z,91.10
2023-12-04T13:52:30.793Z,90.60
2023-12-04T13:54:57.598Z,90.90
2023-12-04T13:57:24.372Z,91.00
2023-12-04T13:59:51.153Z,91.00
2023-12-04T14:02:19.442Z,91.40
2023-12-04T14:04:46.345Z,91.00
2023-12-04T14:07:13.815Z,91.20
2023-12-04T14:09:41.211Z,91.20
2023-12-04T14:12:09.290Z,91.40
2023-12-04T14:14:36.257Z,91.30
2023-12-04T14:17:03.033Z,91.50
2023-12-04T14:19:31.602Z,91.40
2023-12-04T14:21:58.499Z,91.40
2023-12-04T14:24:25.378Z,91.60
2023-12-04T14:26:52.562Z,91.70
2023-12-04T14:29:19.457Z,91.70
2023-12-04T14:31:46.339Z,91.90
2023-12-04T14:34:13.450Z,91.90
2023-12-04T14:36:41.723Z,92.10
2023-12-04T14:39:08.520Z,92.10
2023-12-04T14:41:35.311Z,92.10
2023-12-04T14:44:02.132Z,92.10
2023-12-04T14:46:29.007Z,92.60
2023-12-04T14:48:55.828Z,92.70
2023-12-04T14:51:22.696Z,92.60
2023-12-04T14:53:50.836Z,92.90
2023-12-04T14:56:18.235Z,93.00
2023-12-04T14:58:45.039Z,93.10
2023-12-04T15:01:12.072Z,93.50
2023-12-04T15:03:38.995Z,93.00
2023-12-04T15:06:06.310Z,92.90
2023-12-04T15:08:33.474Z,93.30
2023-12-04T15:11:03.210Z,93.60
2023-12-04T15:13:31.740Z,93.50
2023-12-04T15:15:58.686Z,93.70
2023-12-04T15:18:25.661Z,93.60
2023-12-04T15:20:52.558Z,93.40
2023-12-04T15:23:19.436Z,93.40
2023-12-04T15:25:46.317Z,93.30
2023-12-04T15:28:14.391Z,93.30
2023-12-04T15:30:41.692Z,93.50
2023-12-04T15:33:08.563Z,93.60
2023-12-04T15:35:35.349Z,94.00
2023-12-04T15:38:02.087Z,94.30
2023-12-04T15:40:28.835Z,94.30
2023-12-04T15:42:55.641Z,94.60
2023-12-04T15:45:23.830Z,94.60
2023-12-04T15:47:50.860Z,94.80
2023-12-04T15:50:17.815Z,94.70
2023-12-04T15:52:44.572Z,94.60
2023-12-04T15:55:11.358Z,94.50
2023-12-04T15:57:38.633Z,94.70
2023-12-04T16:00:06.830Z,94.70
2023-12-04T16:02:35.027Z,94.70
2023-12-04T16:05:03.404Z,94.80
2023-12-04T16:07:30.473Z,95.00
2023-12-04T16:09:57.240Z,94.90
2023-12-04T16:12:24.093Z,94.90
2023-12-04T16:14:51.043Z,95.10
2023-12-04T16:17:18.013Z,95.10
2023-12-04T16:19:46.137Z,95.20
2023-12-04T16:22:12.932Z,94.80
2023-12-04T16:24:39.817Z,94.90
2023-12-04T16:27:06.684Z,95.70
2023-12-04T16:29:33.569Z,95.50
2023-12-04T16:32:00.354Z,95.60
2023-12-04T16:34:28.208Z,95.30
2023-12-04T16:36:57.641Z,95.20
2023-12-04T16:39:24.710Z,95.40
2023-12-04T16:41:51.496Z,95.20
2023-12-04T16:44:18.300Z,95.40
2023-12-04T16:46:45.197Z,95.30
2023-12-04T16:49:13.178Z,95.30
2023-12-04T16:51:40.192Z,95.50
2023-12-04T16:54:08.535Z,95.40
2023-12-04T16:56:35.408Z,95.30
2023-12-04T16:59:02.208Z,95.40
2023-12-04T17:01:29.240Z,95.10
2023-12-04T17:03:56.246Z,95.00
2023-12-04T17:06:23.230Z,95.20
2023-12-04T17:08:50.284Z,95.20
2023-12-04T17:11:18.512Z,95.30
2023-12-04T17:13:45.326Z,95.50
2023-12-04T17:16:12.183Z,95.70
2023-12-04T17:18:39.030Z,95.80
2023-12-04T17:21:06.552Z,95.80
2023-12-04T17:23:34.153Z,95.90
2023-12-04T17:26:01.667Z,96.00
2023-12-04T17:28:29.810Z,95.90
2023-12-04T17:30:56.561Z,96.20
2023-12-04T17:33:23.601Z,96.30
2023-12-04T17:35:50.441Z,96.40
2023-12-04T17:38:17.276Z,96.50
2023-12-04T17:40:44.157Z,96.60
2023-12-04T17:43:11.856Z,96.50
2023-12-04T17:45:40.061Z,96.40
2023-12-04T17:48:06.953Z,96.40
2023-12-04T17:50:33.786Z,96.60
2023-12-04T17:53:00.536Z,96.40
2023-12-04T17:55:27.381Z,96.50
2023-12-04T17:57:56.565Z,96.50
2023-12-04T18:00:24.279Z,96.60
2023-12-04T18:02:52.397Z,96.60
2023-12-04T18:05:19.694Z,96.60
2023-12-04T18:07:46.438Z,96.50
2023-12-04T18:10:13.284Z,96.30
2023-12-04T18:12:40.311Z,96.10
2023-12-04T18:15:08.341Z,96.30
2023-12-04T18:17:35.175Z,96.20
2023-12-04T18:20:03.565Z,96.40
2023-12-04T18:22:30.350Z,96.10
2023-12-04T18:24:57.543Z,96.30
2023-12-04T18:27:24.827Z,96.30
2023-12-04T18:29:52.053Z,96.60
2023-12-04T18:32:19.245Z,96.80
2023-12-04T18:34:46.492Z,96.70
2023-12-04T18:37:21.671Z,96.80
2023-12-04T18:39:50.815Z,96.60
2023-12-04T18:42:18.203Z,96.60
2023-12-04T18:44:45.498Z,96.60
2023-12-04T18:47:17.394Z,96.90
2023-12-04T18:49:45.432Z,96.90
2023-12-04T18:52:14.471Z,97.20
2023-12-04T18:54:41.232Z,96.80
2023-12-04T18:57:08.014Z,97.00
2023-12-04T18:59:34.900Z,97.10
2023-12-04T19:02:01.716Z,97.20
2023-12-04T19:04:28.604Z,97.10
2023-12-04T19:06:56.129Z,97.30
2023-12-04T19:09:24.848Z,97.60
2023-12-04T19:11:51.622Z,97.40
2023-12-04T19:14:18.453Z,97.20
2023-12-04T19:16:45.217Z,97.40
2023-12-04T19:19:12.090Z,96.90
2023-12-04T19:21:38.946Z,97.10
2023-12-04T19:24:06.297Z,97.20
2023-12-04T19:26:34.586Z,97.10
2023-12-04T19:29:01.331Z,97.20
2023-12-04T19:31:28.079Z,97.10
2023-12-04T19:33:55.092Z,97.20
2023-12-04T19:36:22.016Z,97.30
2023-12-04T19:38:48.787Z,96.90
2023-12-04T19:41:15.544Z,97.50
2023-12-04T19:43:44.261Z,98.10
2023-12-04T19:46:11.022Z,98.50
2023-12-04T19:48:37.901Z,97.80
2023-12-04T19:51:05.490Z,97.90
2023-12-04T19:53:32.276Z,97.30
2023-12-04T19:55:59.003Z,97.30
2023-12-04T19:58:25.774Z,97.40
2023-12-04T20:00:53.940Z,97.30
2023-12-04T20:03:20.805Z,97.70
2023-12-04T20:05:48.048Z,97.60
2023-12-04T20:08:14.859Z,98.00
2023-12-04T20:10:41.639Z,97.80
2023-12-04T20:13:08.487Z,97.20
2023-12-04T20:15:35.887Z,97.10
2023-12-04T20:18:04.259Z,97.50
2023-12-04T20:20:31.227Z,97.90
2023-12-04T20:22:58.037Z,97.00
2023-12-04T20:25:25.006Z,97.50
2023-12-04T20:27:51.753Z,97.70
2023-12-04T20:30:18.560Z,97.40
2023-12-04T20:32:45.359Z,97.50
2023-12-04T20:35:13.509Z,97.70
2023-12-04T20:37:42.116Z,97.70
2023-12-04T20:40:10.492Z,98.00
2023-12-04T20:42:37.462Z,97.60
2023-12-04T20:45:05.734Z,97.60
2023-12-04T20:47:33.112Z,97.40
2023-12-04T20:49:59.853Z,97.60
2023-12-04T20:52:28.570Z,97.20
2023-12-04T20:54:55.367Z,97.60
2023-12-04T20:57:22.154Z,97.80
2023-12-04T20:59:48.950Z,98.30
2023-12-04T21:02:15.706Z,98.10
2023-12-04T21:04:42.604Z,97.60
2023-12-04T21:07:09.586Z,97.80
2023-12-04T21:09:37.799Z,97.80
2023-12-04T21:12:04.906Z,98.40
2023-12-04T21:14:31.681Z,99.30
2023-12-04T21:17:01.466Z,99.90
2023-12-04T21:19:29.267Z,99.10
2023-12-04T21:21:56.253Z,99.30
2023-12-04T21:24:23.031Z,99.50
2023-12-04T21:26:51.115Z,99.50
2023-12-04T21:29:17.913Z,99.90
2023-12-04T21:31:44.969Z,99.70
2023-12-04T21:34:11.852Z,98.80
2023-12-04T21:36:38.688Z,98.20
2023-12-04T21:39:05.510Z,98.50
2023-12-04T21:41:32.637Z,98.70
2023-12-04T21:44:00.797Z,98.50
2023-12-04T21:46:27.584Z,99.30
2023-12-04T21:48:54.433Z,99.90
2023-12-04T21:51:21.242Z,98.70
2023-12-04T21:53:48.003Z,99.60
2023-12-04T21:56:14.787Z,99.90
2023-12-04T21:58:41.681Z,99.30
2023-12-04T22:01:09.886Z,98.00
2023-12-04T22:03:36.809Z,98.90
2023-12-04T22:06:04.644Z,99.70
2023-12-04T22:08:31.541Z,99.50
2023-12-04T22:10:58.524Z,99.60
2023-12-04T22:13:25.302Z,99.10
2023-12-04T22:15:52.099Z,99.40
2023-12-04T22:18:20.389Z,99.90
2023-12-04T22:20:47.371Z,99.90
2023-12-04T22:23:15.002Z,99.90
2023-12-04T22:25:41.914Z,99.80
2023-12-04T22:28:08.712Z,99.30
2023-12-04T22:30:35.483Z,99.10
2023-12-04T22:33:02.292Z,99.20
2023-12-04T22:35:30.418Z,99.40
2023-12-04T22:37:57.137Z,99.50
2023-12-04T22:40:23.879Z,98.80
2023-12-04T22:42:50.637Z,98.80
2023-12-04T22:45:17.642Z,99.30
2023-12-04T22:47:44.492Z,99.30
2023-12-04T22:50:11.471Z,98.40
2023-12-04T22:52:39.631Z,99.30
2023-12-04T22:55:06.961Z,98.90
2023-12-04T22:57:33.728Z,98.60
2023-12-04T23:00:00.517Z,99.20
2023-12-04T23:02:27.247Z,98.10
2023-12-04T23:04:54.228Z,98.30
2023-12-04T23:07:21.584Z,98.80
2023-12-04T23:09:49.739Z,97.90
2023-12-04T23:12:16.644Z,98.40
2023-12-04T23:14:43.441Z,99.90
2023-12-04T23:17:10.237Z,98.80
2023-12-04T23:19:37.017Z,99.70
2023-12-04T23:22:04.019Z,97.50
2023-12-04T23:24:30.783Z,97.70
2023-12-04T23:26:58.855Z,98.10
2023-12-04T23:29:25.658Z,98.90
2023-12-04T23:31:52.412Z,98.70
2023-12-04T23:34:19.324Z,97.80
2023-12-04T23:36:46.095Z,97.70
2023-12-04T23:39:12.939Z,97.10
2023-12-04T23:41:39.708Z,97.00
2023-12-04T23:44:07.794Z,98.20
2023-12-04T23:46:34.535Z,98.40
2023-12-04T23:49:01.469Z,97.80
2023-12-04T23:51:28.255Z,97.60
2023-12-04T23:53:55.017Z,97.40
2023-12-04T23:56:21.822Z,97.70
2023-12-04T23:58:48.588Z,97.30
